Pagina principale
METAR-TAF:

METAR-TAF

Aeroporti :

Sanford Seacoast Regional Airport

Sanford, Maine, Stati Uniti

latitudine: 43-24N, longitudine: 070-43W, altezza: 74 m

Osservazione

Il bollettino è stato emesso 23 minuti fa, alle 21:26 UTC
Vento 7 kt da nord
Temperature -1°C
Umidità 100%
Pressione 1011 hPa
Visibilità: 2.0 km
Nubi sparse ad un'altezza di 800 ft
Cielo coperto ad un'altezza di 2000 ft
neve debole, foschia

METAR: KSFM 202126Z AUTO 35007KT 1 1/4SM -SN BR SCT008 OVC020 M01/M01 A2985 RMK AO2 UPE2057SNB2057 FZRANO PNO $

Ora: 16:49 (21:49 UTC)


TAF: mancante

Osservazioni e previsioni meteorologiche di più di 4000 aeroporti (messaggi METAR e TAF).

Le stazioni disponibili sono rappresentate dai dischi gialli e rossi sulla carta.

Puntare il mouse per vedere il nome della stazione.

Clicca sopra per visualizzare le osservazioni e previsioni meteorologiche.

Per cambiare la mappa : fare clic sui pulsanti verdi con una croce nera per ingrandire, il pulsante verde con un trattino per diminuire, o sulla freccia verde per le mappe adiacenti.


METAR-TAF: